»·PEaware :: N412PA L52-L88

N412PA :: L52-L88

FLIGHT INFORMATION

Flight Status: Arrived
Operator: Privately registered:
United States
More flights under this callsign
Pilot: Joe C. (32404)
Aircraft: CESSNA 172 SKYHAWK
(C172)
More flights by this aircraft type
Origin: L52 Oceano Co
United States
Destination: L88 New Cuyama
United States
More flights between these airports :: More routes between these airports
Route: FLW
File this flight plan on PilotEdge
Remarks: L52 to L88 via FLW VOR
Altitude:
(Current/Filed)
5,500ft
Speed:
(Current/Filed)
108kts
Departed: 01-Jan-21 01:00 PM
Arrived: 01-Jan-21 01:34 PM
Distance/Time
Traveled:
6878nm/0:34
Distance/Time
To Go:
Arrived

Flight Plot

Page will automatically refresh every two minutes.


Map Options




Map Legend


Flown Route
Filed Route
Departure Airport
Arrival Airport
Navaid (VOR, NDB)
Fix

Horizontal Profiles

Position Reports

Time Latitude Longitude Heading Altitude Ground
Speed
01-Jan-21 12:44 35.103120 -120.623935 238 19ft 0kts
01-Jan-21 12:45 35.103120 -120.623935 238 19ft 0kts
01-Jan-21 12:46 35.103120 -120.623935 238 19ft 0kts
01-Jan-21 12:47 35.103120 -120.623935 238 19ft 0kts
01-Jan-21 12:49 35.103120 -120.623935 238 19ft 0kts
01-Jan-21 12:50 35.103120 -120.623935 238 19ft 0kts
01-Jan-21 12:51 35.103120 -120.623935 238 19ft 0kts
01-Jan-21 12:52 35.103098 -120.624002 229 19ft 0kts
01-Jan-21 12:53 35.102849 -120.623920 174 20ft 0kts
01-Jan-21 12:54 35.101570 -120.623328 123 20ft 12kts
01-Jan-21 12:55 35.099616 -120.619699 120 17ft 6kts
01-Jan-21 12:56 35.099595 -120.619650 106 17ft 0kts
01-Jan-21 12:57 35.099595 -120.619650 106 17ft 0kts
01-Jan-21 12:58 35.099630 -120.619439 54 17ft 0kts
01-Jan-21 12:59 35.100018 -120.619503 299 16ft 11kts
01-Jan-21 13:00 35.107086 -120.636937 281 515ft 73kts
01-Jan-21 13:01 35.087951 -120.640188 138 1200ft 102kts
01-Jan-21 13:02 35.083558 -120.612413 77 2059ft 89kts
01-Jan-21 13:03 35.090753 -120.583982 67 2842ft 87kts
01-Jan-21 13:03 35.098381 -120.561536 69 3482ft 84kts
01-Jan-21 13:04 35.102260 -120.532718 85 4184ft 89kts
01-Jan-21 13:06 35.101649 -120.497927 88 5039ft 86kts
01-Jan-21 13:07 35.102035 -120.467430 87 5588ft 98kts
01-Jan-21 13:07 35.101856 -120.436780 88 5724ft 110kts
01-Jan-21 13:08 35.102153 -120.396180 96 5565ft 118kts
01-Jan-21 13:09 35.100058 -120.357353 89 5614ft 114kts
01-Jan-21 13:10 35.099600 -120.318089 90 5566ft 117kts
01-Jan-21 13:11 35.099145 -120.279307 90 5519ft 113kts
01-Jan-21 13:12 35.098644 -120.240898 91 5515ft 112kts
01-Jan-21 13:13 35.098118 -120.201746 90 5522ft 118kts
01-Jan-21 13:14 35.097562 -120.161425 90 5513ft 118kts
01-Jan-21 13:15 35.096996 -120.121438 91 5518ft 117kts
01-Jan-21 13:16 35.096419 -120.081217 91 5518ft 119kts
01-Jan-21 13:17 35.095826 -120.041160 91 5518ft 117kts
01-Jan-21 13:18 35.095228 -120.000975 91 5518ft 118kts
01-Jan-21 13:19 35.094606 -119.960846 91 5519ft 117kts
01-Jan-21 13:20 35.093981 -119.921150 91 5552ft 117kts
01-Jan-21 13:21 35.088640 -119.884079 137 5558ft 117kts
01-Jan-21 13:22 35.064407 -119.859839 143 5513ft 109kts
01-Jan-21 13:23 35.040243 -119.837154 143 5366ft 109kts
01-Jan-21 13:24 35.016263 -119.815005 144 4824ft 106kts
01-Jan-21 13:25 34.990980 -119.797114 169 4295ft 104kts
01-Jan-21 13:26 34.962457 -119.791660 172 3833ft 103kts
01-Jan-21 13:27 34.941225 -119.776984 83 3524ft 103kts
01-Jan-21 13:28 34.942173 -119.743189 86 3361ft 95kts
01-Jan-21 13:29 34.941111 -119.712079 116 3418ft 93kts
01-Jan-21 13:30 34.928273 -119.682841 116 3289ft 100kts
01-Jan-21 13:31 34.928084 -119.658419 0 2874ft 84kts
01-Jan-21 13:32 34.937554 -119.679674 295 2221ft 71kts
01-Jan-21 13:33 34.941790 -119.690087 297 2157ft 14kts
01-Jan-21 13:34 34.942686 -119.690646 76 2152ft 3kts
01-Jan-21 13:35 34.942767 -119.690589 2 2152ft 0kts
01-Jan-21 13:36 34.942767 -119.690589 2 2152ft 0kts
01-Jan-21 13:37 34.942767 -119.690589 2 2152ft 0kts
01-Jan-21 13:38 0.000408 0.013975 0 3ft 0kts
01-Jan-21 13:39 0.000408 0.013975 0 3ft 0kts
01-Jan-21 13:40 0.000408 0.013975 0 3ft 0kts
01-Jan-21 13:41 0.000408 0.013975 0 3ft 0kts
01-Jan-21 13:42 0.000408 0.013975 0 3ft 0kts
01-Jan-21 13:43 0.000408 0.013975 0 3ft 0kts

Navigation Log

Ident Type
Flight plan parsing failed, navigation log unavailable